createdAt,value
2022-12-22T00:03:28.789Z,3.10
2022-12-22T00:08:53.280Z,3.30
2022-12-22T00:14:16.795Z,3.00
2022-12-22T00:19:41.189Z,3.10
2022-12-22T00:25:06.161Z,3.20
2022-12-22T00:30:35.936Z,3.50
2022-12-22T00:35:59.995Z,3.20
2022-12-22T00:41:25.630Z,3.30
2022-12-22T00:46:51.256Z,3.30
2022-12-22T00:52:15.764Z,3.50
2022-12-22T00:57:44.337Z,3.60
2022-12-22T01:03:08.951Z,3.70
2022-12-22T01:08:34.270Z,3.60
2022-12-22T01:13:58.757Z,3.70
2022-12-22T01:19:23.178Z,3.60
2022-12-22T01:24:49.991Z,3.50
2022-12-22T01:30:14.436Z,3.70
2022-12-22T01:35:42.903Z,3.90
2022-12-22T01:41:08.037Z,3.80
2022-12-22T01:46:48.118Z,3.70
2022-12-22T01:52:12.463Z,3.60
2022-12-22T01:57:35.829Z,3.50
2022-12-22T02:02:59.592Z,3.50
2022-12-22T02:08:43.582Z,3.50
2022-12-22T02:14:42.253Z,3.40
2022-12-22T02:21:00.827Z,3.30
2022-12-22T02:26:49.959Z,3.50
2022-12-22T02:32:14.458Z,3.60
2022-12-22T02:38:05.475Z,3.50
2022-12-22T02:44:07.051Z,3.60
2022-12-22T02:49:44.491Z,3.60
2022-12-22T02:55:08.732Z,3.60
2022-12-22T03:00:33.354Z,3.80
2022-12-22T03:05:57.736Z,3.50
2022-12-22T03:11:21.584Z,3.30
2022-12-22T03:16:46.042Z,3.60
2022-12-22T03:22:10.333Z,3.30
2022-12-22T03:27:15.825Z,3.20
2022-12-22T03:32:22.122Z,3.20
2022-12-22T03:37:28.834Z,3.30
2022-12-22T03:42:52.987Z,3.20
2022-12-22T03:47:59.401Z,3.30
2022-12-22T03:53:07.310Z,3.20
2022-12-22T03:58:13.973Z,3.20
2022-12-22T04:03:20.673Z,3.20
2022-12-22T04:08:27.434Z,3.20
2022-12-22T04:13:34.458Z,3.00
2022-12-22T04:18:41.039Z,3.10
2022-12-22T04:23:49.792Z,3.10
2022-12-22T04:28:56.953Z,3.20
2022-12-22T04:34:03.771Z,3.30
2022-12-22T04:39:10.447Z,3.40
2022-12-22T04:44:17.458Z,3.40
2022-12-22T04:49:24.510Z,3.50
2022-12-22T04:54:31.574Z,3.40
2022-12-22T04:59:38.257Z,3.30
2022-12-22T05:04:45.658Z,3.30
2022-12-22T05:09:52.344Z,3.50
2022-12-22T05:14:59.119Z,3.40
2022-12-22T05:20:06.165Z,3.30
2022-12-22T05:25:13.557Z,3.40
2022-12-22T05:30:22.136Z,3.80
2022-12-22T05:35:29.393Z,3.80
2022-12-22T05:40:36.216Z,3.70
2022-12-22T05:45:43.050Z,3.60
2022-12-22T05:50:49.954Z,3.60
2022-12-22T05:55:58.469Z,3.50
2022-12-22T06:01:05.480Z,3.80
2022-12-22T06:06:12.295Z,3.50
2022-12-22T06:11:20.430Z,3.40
2022-12-22T06:16:27.242Z,3.40
2022-12-22T06:21:33.875Z,3.50
2022-12-22T06:26:41.097Z,3.30
2022-12-22T06:31:48.280Z,3.10
2022-12-22T06:36:55.087Z,3.00
2022-12-22T06:42:19.860Z,2.80
2022-12-22T06:47:26.507Z,2.90
2022-12-22T06:52:33.275Z,2.90
2022-12-22T06:57:40.227Z,2.90
2022-12-22T07:02:47.386Z,2.80
2022-12-22T07:07:55.578Z,2.80
2022-12-22T07:13:03.814Z,2.80
2022-12-22T07:18:10.772Z,2.90
2022-12-22T07:23:17.455Z,2.90
2022-12-22T07:28:24.915Z,3.10
2022-12-22T07:33:32.278Z,3.20
2022-12-22T07:38:42.984Z,3.10
2022-12-22T07:43:49.792Z,3.30
2022-12-22T07:49:14.571Z,3.40
2022-12-22T07:54:21.671Z,3.40
2022-12-22T07:59:28.724Z,3.50
2022-12-22T08:04:35.810Z,3.60
2022-12-22T08:09:43.012Z,3.60
2022-12-22T08:14:49.694Z,3.50
2022-12-22T08:19:57.822Z,3.30
2022-12-22T08:25:04.961Z,3.20
2022-12-22T08:30:13.304Z,3.30
2022-12-22T08:35:20.551Z,3.40
2022-12-22T08:40:31.228Z,3.60
2022-12-22T08:45:38.452Z,3.80
2022-12-22T08:50:45.480Z,3.80
2022-12-22T08:55:57.150Z,4.10
2022-12-22T09:01:04.246Z,4.40
2022-12-22T09:06:11.201Z,4.50
2022-12-22T09:11:19.014Z,4.20
2022-12-22T09:16:28.021Z,4.30
2022-12-22T09:21:36.541Z,4.50
2022-12-22T09:26:43.824Z,4.40
2022-12-22T09:31:50.629Z,4.40
2022-12-22T09:36:57.592Z,4.60
2022-12-22T09:42:04.690Z,4.90
2022-12-22T09:47:24.895Z,5.20
2022-12-22T09:52:50.610Z,5.30
2022-12-22T09:57:58.352Z,5.60
2022-12-22T10:03:15.390Z,5.70
2022-12-22T10:08:33.371Z,5.50
2022-12-22T10:13:40.291Z,5.50
2022-12-22T10:19:02.797Z,5.80
2022-12-22T10:24:24.511Z,5.80
2022-12-22T10:29:33.390Z,5.90
2022-12-22T10:34:42.024Z,5.70
2022-12-22T10:39:48.988Z,5.70
2022-12-22T10:44:55.991Z,5.80
2022-12-22T10:50:03.170Z,5.90
2022-12-22T10:55:23.520Z,6.10
2022-12-22T11:00:33.239Z,6.20
2022-12-22T11:05:40.312Z,5.80
2022-12-22T11:11:05.944Z,5.70
2022-12-22T11:16:48.777Z,5.80
2022-12-22T11:22:17.868Z,5.70
2022-12-22T11:27:45.883Z,5.70
2022-12-22T11:33:17.720Z,6.00
2022-12-22T11:38:37.758Z,5.90
2022-12-22T11:44:10.082Z,5.80
2022-12-22T11:49:43.458Z,5.80
2022-12-22T11:55:10.779Z,5.60
2022-12-22T12:00:20.819Z,5.60
2022-12-22T12:05:40.866Z,5.60
2022-12-22T12:10:57.473Z,5.60
2022-12-22T12:16:20.829Z,5.50
2022-12-22T12:21:43.330Z,5.40
2022-12-22T12:27:19.695Z,5.30
2022-12-22T12:32:39.952Z,5.20
2022-12-22T12:37:48.878Z,5.40
2022-12-22T12:42:56.694Z,5.20
2022-12-22T12:48:27.653Z,5.00
2022-12-22T12:53:34.776Z,5.10
2022-12-22T12:58:46.757Z,5.00
2022-12-22T13:04:02.967Z,5.10
2022-12-22T13:09:48.723Z,5.10
2022-12-22T13:14:38.777Z,5.10
2022-12-22T13:19:47.776Z,5.10
2022-12-22T13:24:56.955Z,5.20
2022-12-22T13:30:06.802Z,5.40
2022-12-22T13:35:46.909Z,5.40
2022-12-22T13:40:49.637Z,5.10
2022-12-22T13:46:00.212Z,4.90
2022-12-22T13:51:10.897Z,4.80
2022-12-22T13:56:30.582Z,4.90
2022-12-22T14:01:37.483Z,4.90
2022-12-22T14:06:45.305Z,5.00
2022-12-22T14:12:09.595Z,5.00
2022-12-22T14:17:46.237Z,5.10
2022-12-22T14:23:00.426Z,5.00
2022-12-22T14:28:26.460Z,5.00
2022-12-22T14:33:36.044Z,4.90
2022-12-22T14:38:49.371Z,4.80
2022-12-22T14:43:56.351Z,4.60
2022-12-22T14:49:03.155Z,4.60
2022-12-22T14:54:21.995Z,4.40
2022-12-22T14:59:32.257Z,4.30
2022-12-22T15:04:39.323Z,4.30
2022-12-22T15:10:14.485Z,4.30
2022-12-22T15:14:54.729Z,4.20
2022-12-22T15:20:02.689Z,4.10
2022-12-22T15:25:19.708Z,3.90
2022-12-22T15:30:29.638Z,3.80
2022-12-22T15:35:37.687Z,3.80
2022-12-22T15:40:44.890Z,3.70
2022-12-22T15:45:51.625Z,3.60
2022-12-22T15:50:59.243Z,3.50
2022-12-22T15:56:06.069Z,3.50
2022-12-22T16:01:14.332Z,3.50
2022-12-22T16:06:21.919Z,3.50
2022-12-22T16:11:29.021Z,3.60
2022-12-22T16:16:36.645Z,3.50
2022-12-22T16:21:46.306Z,3.50
2022-12-22T16:26:53.783Z,3.50
2022-12-22T16:32:24.832Z,3.50
2022-12-22T16:37:31.907Z,3.50
2022-12-22T16:48:11.917Z,3.60
2022-12-22T16:53:18.888Z,3.60
2022-12-22T16:58:26.020Z,3.50
2022-12-22T17:03:33.369Z,3.50
2022-12-22T17:08:43.486Z,3.40
2022-12-22T17:13:51.705Z,3.40
2022-12-22T17:18:58.684Z,3.20
2022-12-22T17:24:05.854Z,3.20
2022-12-22T17:29:25.886Z,3.20
2022-12-22T17:34:33.923Z,3.00
2022-12-22T17:39:41.471Z,3.20
2022-12-22T17:44:49.303Z,3.30
2022-12-22T17:49:57.714Z,3.30
2022-12-22T17:55:07.652Z,3.10
2022-12-22T18:00:25.023Z,3.20
2022-12-22T18:05:36.034Z,3.20
2022-12-22T18:10:42.983Z,3.40
2022-12-22T18:15:50.399Z,3.60
2022-12-22T18:21:07.477Z,3.40
2022-12-22T18:26:09.656Z,3.40
2022-12-22T18:31:16.818Z,3.60
2022-12-22T18:36:35.211Z,3.60
2022-12-22T18:41:42.742Z,3.60
2022-12-22T18:46:49.999Z,3.60
2022-12-22T18:51:56.772Z,3.70
2022-12-22T18:57:03.876Z,3.60
2022-12-22T19:02:26.712Z,3.70
2022-12-22T19:07:34.298Z,3.90
2022-12-22T19:12:41.224Z,3.70
2022-12-22T19:17:47.975Z,3.50
2022-12-22T19:22:54.828Z,3.50
2022-12-22T19:28:39.548Z,3.60
2022-12-22T19:33:46.792Z,3.50
2022-12-22T19:39:03.226Z,3.40
2022-12-22T19:44:06.944Z,3.30
2022-12-22T19:49:20.106Z,3.40
2022-12-22T19:54:28.459Z,3.50
2022-12-22T19:59:48.196Z,3.30
2022-12-22T20:04:56.713Z,3.40
2022-12-22T20:10:04.469Z,3.50
2022-12-22T20:15:20.737Z,3.40
2022-12-22T20:20:39.046Z,3.50
2022-12-22T20:25:49.938Z,3.50
2022-12-22T20:30:58.094Z,3.80
2022-12-22T20:36:07.440Z,3.70
2022-12-22T20:41:14.132Z,3.60
2022-12-22T20:46:27.336Z,3.60
2022-12-22T20:51:36.093Z,3.70
2022-12-22T20:56:44.603Z,3.90
2022-12-22T21:01:53.783Z,3.80
2022-12-22T21:07:00.844Z,3.80
2022-12-22T21:12:08.595Z,3.80
2022-12-22T21:17:18.261Z,3.90
2022-12-22T21:22:25.024Z,3.90
2022-12-22T21:27:32.229Z,3.80
2022-12-22T21:32:39.585Z,3.70
2022-12-22T21:37:49.404Z,3.80
2022-12-22T21:42:58.453Z,3.80
2022-12-22T21:48:05.600Z,4.00
2022-12-22T21:53:19.789Z,3.90
2022-12-22T21:58:22.846Z,3.90
2022-12-22T22:03:30.005Z,3.90
2022-12-22T22:08:36.982Z,3.80
2022-12-22T22:13:43.828Z,3.90
2022-12-22T22:18:51.428Z,3.90
2022-12-22T22:23:58.749Z,3.90
2022-12-22T22:29:05.560Z,3.80
2022-12-22T22:34:12.399Z,3.70
2022-12-22T22:39:19.291Z,3.40
2022-12-22T22:44:26.048Z,3.30
2022-12-22T22:49:32.870Z,3.40
2022-12-22T22:54:40.053Z,3.40
2022-12-22T22:59:46.887Z,3.40
2022-12-22T23:04:53.773Z,3.50
2022-12-22T23:10:00.435Z,3.50
2022-12-22T23:15:09.242Z,3.50
2022-12-22T23:20:16.397Z,3.60
2022-12-22T23:25:23.390Z,3.40
2022-12-22T23:30:30.480Z,3.50
2022-12-22T23:35:42.036Z,3.70
2022-12-22T23:40:53.965Z,3.60
2022-12-22T23:45:57.873Z,3.60
2022-12-22T23:51:06.974Z,3.60
2022-12-22T23:56:13.733Z,3.80
